sensor_id;sensor_type;location;lat;lon;timestamp;P1;durP1;ratioP1;P2;durP2;ratioP2
15629;SDS011;7914;50.842;0.166;2023-04-01T00:00:58;4.78;;;1.85;;
15629;SDS011;7914;50.842;0.166;2023-04-01T00:03:25;4.82;;;1.50;;
15629;SDS011;7914;50.842;0.166;2023-04-01T00:05:53;5.82;;;1.90;;
15629;SDS011;7914;50.842;0.166;2023-04-01T00:08:19;6.05;;;1.70;;
15629;SDS011;7914;50.842;0.166;2023-04-01T00:10:45;8.10;;;2.38;;
15629;SDS011;7914;50.842;0.166;2023-04-01T00:13:11;6.47;;;2.60;;
15629;SDS011;7914;50.842;0.166;2023-04-01T00:15:37;8.05;;;2.25;;
15629;SDS011;7914;50.842;0.166;2023-04-01T00:18:03;7.80;;;2.20;;
15629;SDS011;7914;50.842;0.166;2023-04-01T00:20:29;6.90;;;1.92;;
15629;SDS011;7914;50.842;0.166;2023-04-01T00:22:55;8.35;;;2.70;;
15629;SDS011;7914;50.842;0.166;2023-04-01T00:25:21;6.95;;;2.10;;
15629;SDS011;7914;50.842;0.166;2023-04-01T00:27:47;5.55;;;2.15;;
15629;SDS011;7914;50.842;0.166;2023-04-01T00:30:12;5.55;;;2.20;;
15629;SDS011;7914;50.842;0.166;2023-04-01T00:32:39;6.05;;;2.28;;
15629;SDS011;7914;50.842;0.166;2023-04-01T00:35:05;5.72;;;2.25;;
15629;SDS011;7914;50.842;0.166;2023-04-01T00:37:31;6.70;;;2.40;;
15629;SDS011;7914;50.842;0.166;2023-04-01T00:40:02;5.90;;;2.20;;
15629;SDS011;7914;50.842;0.166;2023-04-01T00:42:29;7.18;;;2.55;;
15629;SDS011;7914;50.842;0.166;2023-04-01T00:44:55;6.00;;;2.08;;
15629;SDS011;7914;50.842;0.166;2023-04-01T00:47:21;9.68;;;2.10;;
15629;SDS011;7914;50.842;0.166;2023-04-01T00:49:51;6.13;;;2.03;;
15629;SDS011;7914;50.842;0.166;2023-04-01T00:52:20;9.80;;;2.80;;
15629;SDS011;7914;50.842;0.166;2023-04-01T00:54:48;7.32;;;2.55;;
15629;SDS011;7914;50.842;0.166;2023-04-01T00:57:19;5.28;;;1.98;;
15629;SDS011;7914;50.842;0.166;2023-04-01T00:59:50;9.63;;;2.58;;
15629;SDS011;7914;50.842;0.166;2023-04-01T01:02:18;7.68;;;2.10;;
15629;SDS011;7914;50.842;0.166;2023-04-01T01:04:44;7.30;;;2.28;;
15629;SDS011;7914;50.842;0.166;2023-04-01T01:15:24;6.18;;;2.42;;
15629;SDS011;7914;50.842;0.166;2023-04-01T01:18:05;9.70;;;2.38;;
15629;SDS011;7914;50.842;0.166;2023-04-01T01:23:37;6.28;;;1.90;;
15629;SDS011;7914;50.842;0.166;2023-04-01T01:31:37;6.47;;;2.03;;
15629;SDS011;7914;50.842;0.166;2023-04-01T01:35:20;8.82;;;2.40;;
15629;SDS011;7914;50.842;0.166;2023-04-01T01:37:31;5.70;;;2.20;;
15629;SDS011;7914;50.842;0.166;2023-04-01T01:40:02;10.70;;;2.45;;
15629;SDS011;7914;50.842;0.166;2023-04-01T01:42:30;4.30;;;1.63;;
15629;SDS011;7914;50.842;0.166;2023-04-01T01:44:58;6.22;;;2.38;;
15629;SDS011;7914;50.842;0.166;2023-04-01T01:47:26;5.00;;;1.80;;
15629;SDS011;7914;50.842;0.166;2023-04-01T01:49:54;7.28;;;1.98;;
15629;SDS011;7914;50.842;0.166;2023-04-01T01:52:24;9.52;;;2.20;;
15629;SDS011;7914;50.842;0.166;2023-04-01T01:54:53;5.55;;;2.20;;
15629;SDS011;7914;50.842;0.166;2023-04-01T01:57:25;6.70;;;2.20;;
15629;SDS011;7914;50.842;0.166;2023-04-01T01:59:56;5.55;;;2.22;;
15629;SDS011;7914;50.842;0.166;2023-04-01T02:02:27;6.53;;;2.10;;
15629;SDS011;7914;50.842;0.166;2023-04-01T02:04:56;7.82;;;2.22;;
15629;SDS011;7914;50.842;0.166;2023-04-01T02:07:27;7.70;;;1.98;;
15629;SDS011;7914;50.842;0.166;2023-04-01T02:09:56;8.68;;;2.47;;
15629;SDS011;7914;50.842;0.166;2023-04-01T02:12:22;6.82;;;2.17;;
15629;SDS011;7914;50.842;0.166;2023-04-01T02:15:00;5.97;;;1.77;;
15629;SDS011;7914;50.842;0.166;2023-04-01T02:17:35;4.60;;;2.20;;
15629;SDS011;7914;50.842;0.166;2023-04-01T02:20:09;7.32;;;2.17;;
15629;SDS011;7914;50.842;0.166;2023-04-01T02:22:46;7.38;;;2.22;;
15629;SDS011;7914;50.842;0.166;2023-04-01T02:25:34;5.63;;;2.05;;
15629;SDS011;7914;50.842;0.166;2023-04-01T02:28:01;6.38;;;2.47;;
15629;SDS011;7914;50.842;0.166;2023-04-01T02:30:33;6.05;;;2.05;;
15629;SDS011;7914;50.842;0.166;2023-04-01T02:33:01;7.78;;;2.10;;
15629;SDS011;7914;50.842;0.166;2023-04-01T02:35:29;6.07;;;2.00;;
15629;SDS011;7914;50.842;0.166;2023-04-01T02:37:55;5.55;;;2.30;;
15629;SDS011;7914;50.842;0.166;2023-04-01T02:40:21;7.10;;;2.00;;
15629;SDS011;7914;50.842;0.166;2023-04-01T02:42:47;6.40;;;1.95;;
15629;SDS011;7914;50.842;0.166;2023-04-01T02:45:13;5.30;;;1.80;;
15629;SDS011;7914;50.842;0.166;2023-04-01T02:47:40;5.93;;;1.90;;
15629;SDS011;7914;50.842;0.166;2023-04-01T02:50:05;5.50;;;1.92;;
15629;SDS011;7914;50.842;0.166;2023-04-01T02:52:32;5.60;;;2.30;;
15629;SDS011;7914;50.842;0.166;2023-04-01T02:54:58;7.50;;;2.03;;
15629;SDS011;7914;50.842;0.166;2023-04-01T02:57:24;7.70;;;2.20;;
15629;SDS011;7914;50.842;0.166;2023-04-01T02:59:51;9.13;;;2.08;;
15629;SDS011;7914;50.842;0.166;2023-04-01T03:02:18;5.60;;;1.90;;
15629;SDS011;7914;50.842;0.166;2023-04-01T03:04:43;6.90;;;2.22;;
15629;SDS011;7914;50.842;0.166;2023-04-01T03:07:09;5.40;;;1.67;;
15629;SDS011;7914;50.842;0.166;2023-04-01T03:09:36;7.13;;;2.13;;
15629;SDS011;7914;50.842;0.166;2023-04-01T03:12:02;9.55;;;2.30;;
15629;SDS011;7914;50.842;0.166;2023-04-01T03:14:28;5.70;;;2.22;;
15629;SDS011;7914;50.842;0.166;2023-04-01T03:16:54;7.70;;;1.73;;
15629;SDS011;7914;50.842;0.166;2023-04-01T03:19:20;4.20;;;1.65;;
15629;SDS011;7914;50.842;0.166;2023-04-01T03:21:46;3.55;;;1.50;;
15629;SDS011;7914;50.842;0.166;2023-04-01T03:24:12;4.75;;;1.40;;
15629;SDS011;7914;50.842;0.166;2023-04-01T03:26:37;3.60;;;1.35;;
15629;SDS011;7914;50.842;0.166;2023-04-01T03:29:03;6.68;;;1.67;;
15629;SDS011;7914;50.842;0.166;2023-04-01T03:31:29;4.13;;;1.35;;
15629;SDS011;7914;50.842;0.166;2023-04-01T03:33:55;3.75;;;1.40;;
15629;SDS011;7914;50.842;0.166;2023-04-01T03:36:21;4.35;;;1.38;;
15629;SDS011;7914;50.842;0.166;2023-04-01T03:38:46;3.28;;;1.40;;
15629;SDS011;7914;50.842;0.166;2023-04-01T03:41:13;5.40;;;1.50;;
15629;SDS011;7914;50.842;0.166;2023-04-01T03:43:40;3.95;;;1.30;;
15629;SDS011;7914;50.842;0.166;2023-04-01T03:46:06;4.63;;;1.60;;
15629;SDS011;7914;50.842;0.166;2023-04-01T03:48:31;3.05;;;1.48;;
15629;SDS011;7914;50.842;0.166;2023-04-01T03:50:57;3.13;;;1.30;;
15629;SDS011;7914;50.842;0.166;2023-04-01T03:53:23;3.55;;;1.50;;
15629;SDS011;7914;50.842;0.166;2023-04-01T03:55:48;4.82;;;2.00;;
15629;SDS011;7914;50.842;0.166;2023-04-01T03:58:16;5.35;;;1.40;;
15629;SDS011;7914;50.842;0.166;2023-04-01T04:00:42;4.05;;;1.38;;
15629;SDS011;7914;50.842;0.166;2023-04-01T04:03:08;3.85;;;1.65;;
15629;SDS011;7914;50.842;0.166;2023-04-01T04:05:34;5.28;;;1.85;;
15629;SDS011;7914;50.842;0.166;2023-04-01T04:08:00;5.97;;;2.00;;
15629;SDS011;7914;50.842;0.166;2023-04-01T04:10:26;5.78;;;1.63;;
15629;SDS011;7914;50.842;0.166;2023-04-01T04:12:54;3.90;;;1.58;;
15629;SDS011;7914;50.842;0.166;2023-04-01T04:15:20;4.20;;;1.60;;
15629;SDS011;7914;50.842;0.166;2023-04-01T04:17:47;5.28;;;1.33;;
15629;SDS011;7914;50.842;0.166;2023-04-01T04:20:13;4.50;;;1.60;;
15629;SDS011;7914;50.842;0.166;2023-04-01T04:22:39;4.40;;;1.45;;
15629;SDS011;7914;50.842;0.166;2023-04-01T04:25:06;7.28;;;2.65;;
15629;SDS011;7914;50.842;0.166;2023-04-01T04:27:32;5.13;;;1.63;;
15629;SDS011;7914;50.842;0.166;2023-04-01T04:29:58;5.93;;;1.90;;
15629;SDS011;7914;50.842;0.166;2023-04-01T04:32:24;8.38;;;2.20;;
15629;SDS011;7914;50.842;0.166;2023-04-01T04:34:50;6.03;;;1.92;;
15629;SDS011;7914;50.842;0.166;2023-04-01T04:37:16;6.15;;;1.73;;
15629;SDS011;7914;50.842;0.166;2023-04-01T04:39:41;6.00;;;1.85;;
15629;SDS011;7914;50.842;0.166;2023-04-01T04:42:07;5.93;;;1.67;;
15629;SDS011;7914;50.842;0.166;2023-04-01T04:44:33;6.07;;;2.05;;
15629;SDS011;7914;50.842;0.166;2023-04-01T04:46:58;6.35;;;2.17;;
15629;SDS011;7914;50.842;0.166;2023-04-01T04:49:24;8.88;;;2.40;;
15629;SDS011;7914;50.842;0.166;2023-04-01T04:51:50;5.78;;;1.88;;
15629;SDS011;7914;50.842;0.166;2023-04-01T04:54:17;7.55;;;2.08;;
15629;SDS011;7914;50.842;0.166;2023-04-01T04:56:43;4.82;;;2.03;;
15629;SDS011;7914;50.842;0.166;2023-04-01T04:59:08;6.40;;;1.85;;
15629;SDS011;7914;50.842;0.166;2023-04-01T05:01:34;6.90;;;1.95;;
15629;SDS011;7914;50.842;0.166;2023-04-01T05:04:00;6.32;;;2.25;;
15629;SDS011;7914;50.842;0.166;2023-04-01T05:06:25;5.82;;;2.40;;
15629;SDS011;7914;50.842;0.166;2023-04-01T05:08:55;6.97;;;2.33;;
15629;SDS011;7914;50.842;0.166;2023-04-01T05:11:21;10.43;;;2.78;;
15629;SDS011;7914;50.842;0.166;2023-04-01T05:13:47;6.22;;;1.88;;
15629;SDS011;7914;50.842;0.166;2023-04-01T05:16:15;7.00;;;1.95;;
15629;SDS011;7914;50.842;0.166;2023-04-01T05:18:42;5.85;;;1.90;;
15629;SDS011;7914;50.842;0.166;2023-04-01T05:21:09;3.55;;;1.40;;
15629;SDS011;7914;50.842;0.166;2023-04-01T05:23:37;6.25;;;1.65;;
15629;SDS011;7914;50.842;0.166;2023-04-01T05:26:07;6.75;;;1.70;;
15629;SDS011;7914;50.842;0.166;2023-04-01T05:28:34;6.25;;;1.67;;
15629;SDS011;7914;50.842;0.166;2023-04-01T05:31:01;5.88;;;1.80;;
15629;SDS011;7914;50.842;0.166;2023-04-01T05:33:28;5.03;;;1.50;;
15629;SDS011;7914;50.842;0.166;2023-04-01T05:35:54;3.55;;;1.27;;
15629;SDS011;7914;50.842;0.166;2023-04-01T05:38:20;6.18;;;1.77;;
15629;SDS011;7914;50.842;0.166;2023-04-01T05:40:46;3.85;;;1.30;;
15629;SDS011;7914;50.842;0.166;2023-04-01T05:43:12;5.38;;;1.45;;
15629;SDS011;7914;50.842;0.166;2023-04-01T05:45:37;4.30;;;1.35;;
15629;SDS011;7914;50.842;0.166;2023-04-01T05:48:04;5.05;;;1.60;;
15629;SDS011;7914;50.842;0.166;2023-04-01T05:50:30;3.80;;;1.33;;
15629;SDS011;7914;50.842;0.166;2023-04-01T05:52:55;5.32;;;1.55;;
15629;SDS011;7914;50.842;0.166;2023-04-01T05:55:21;4.05;;;1.67;;
15629;SDS011;7914;50.842;0.166;2023-04-01T05:57:47;4.75;;;1.60;;
15629;SDS011;7914;50.842;0.166;2023-04-01T06:00:14;4.47;;;1.60;;
15629;SDS011;7914;50.842;0.166;2023-04-01T06:02:41;4.85;;;1.92;;
15629;SDS011;7914;50.842;0.166;2023-04-01T06:05:12;4.13;;;1.63;;
15629;SDS011;7914;50.842;0.166;2023-04-01T06:07:44;5.35;;;1.95;;
15629;SDS011;7914;50.842;0.166;2023-04-01T06:10:14;6.82;;;1.95;;
15629;SDS011;7914;50.842;0.166;2023-04-01T06:21:04;6.25;;;2.30;;
15629;SDS011;7914;50.842;0.166;2023-04-01T06:32:39;6.22;;;2.55;;
15629;SDS011;7914;50.842;0.166;2023-04-01T06:43:31;6.80;;;2.67;;
15629;SDS011;7914;50.842;0.166;2023-04-01T06:52:02;7.30;;;3.03;;
15629;SDS011;7914;50.842;0.166;2023-04-01T06:54:32;6.80;;;2.65;;
15629;SDS011;7914;50.842;0.166;2023-04-01T07:00:03;6.90;;;3.05;;
15629;SDS011;7914;50.842;0.166;2023-04-01T07:02:42;7.68;;;2.50;;
15629;SDS011;7914;50.842;0.166;2023-04-01T07:05:20;7.05;;;3.00;;
15629;SDS011;7914;50.842;0.166;2023-04-01T07:07:52;8.50;;;3.40;;
15629;SDS011;7914;50.842;0.166;2023-04-01T07:10:29;6.72;;;2.90;;
15629;SDS011;7914;50.842;0.166;2023-04-01T07:13:17;7.43;;;3.38;;
15629;SDS011;7914;50.842;0.166;2023-04-01T07:15:58;7.20;;;3.05;;
15629;SDS011;7914;50.842;0.166;2023-04-01T07:18:44;8.52;;;3.08;;
15629;SDS011;7914;50.842;0.166;2023-04-01T07:21:25;8.13;;;3.20;;
15629;SDS011;7914;50.842;0.166;2023-04-01T07:23:54;7.72;;;2.72;;
15629;SDS011;7914;50.842;0.166;2023-04-01T07:26:25;7.65;;;3.15;;
15629;SDS011;7914;50.842;0.166;2023-04-01T07:28:52;10.48;;;3.05;;
15629;SDS011;7914;50.842;0.166;2023-04-01T07:31:20;9.90;;;3.42;;
15629;SDS011;7914;50.842;0.166;2023-04-01T07:36:30;7.07;;;2.92;;
15629;SDS011;7914;50.842;0.166;2023-04-01T07:41:54;7.50;;;3.08;;
15629;SDS011;7914;50.842;0.166;2023-04-01T07:44:44;7.95;;;3.10;;
15629;SDS011;7914;50.842;0.166;2023-04-01T08:00:24;7.68;;;3.00;;
15629;SDS011;7914;50.842;0.166;2023-04-01T08:21:54;6.30;;;2.60;;
15629;SDS011;7914;50.842;0.166;2023-04-01T08:24:41;5.88;;;2.15;;
15629;SDS011;7914;50.842;0.166;2023-04-01T08:27:13;4.88;;;2.05;;
15629;SDS011;7914;50.842;0.166;2023-04-01T08:29:51;6.38;;;2.53;;
15629;SDS011;7914;50.842;0.166;2023-04-01T08:35:47;6.68;;;2.30;;
15629;SDS011;7914;50.842;0.166;2023-04-01T08:38:31;5.13;;;2.10;;
15629;SDS011;7914;50.842;0.166;2023-04-01T08:41:16;5.35;;;1.60;;
15629;SDS011;7914;50.842;0.166;2023-04-01T08:44:18;6.22;;;2.13;;
15629;SDS011;7914;50.842;0.166;2023-04-01T08:50:08;5.25;;;1.70;;
15629;SDS011;7914;50.842;0.166;2023-04-01T08:53:00;5.63;;;1.95;;
15629;SDS011;7914;50.842;0.166;2023-04-01T09:01:36;4.90;;;2.20;;
15629;SDS011;7914;50.842;0.166;2023-04-01T09:04:47;5.28;;;1.92;;
15629;SDS011;7914;50.842;0.166;2023-04-01T09:07:51;5.00;;;1.98;;
15629;SDS011;7914;50.842;0.166;2023-04-01T09:10:44;4.13;;;1.75;;
15629;SDS011;7914;50.842;0.166;2023-04-01T09:28:10;5.05;;;2.10;;
15629;SDS011;7914;50.842;0.166;2023-04-01T09:38:58;5.82;;;2.28;;
15629;SDS011;7914;50.842;0.166;2023-04-01T09:41:41;6.53;;;2.95;;
15629;SDS011;7914;50.842;0.166;2023-04-01T09:44:25;6.15;;;2.83;;
15629;SDS011;7914;50.842;0.166;2023-04-01T09:52:57;7.15;;;2.70;;
15629;SDS011;7914;50.842;0.166;2023-04-01T10:50:32;5.22;;;2.13;;
15629;SDS011;7914;50.842;0.166;2023-04-01T10:53:30;5.50;;;1.75;;
15629;SDS011;7914;50.842;0.166;2023-04-01T11:16:01;6.40;;;2.75;;
15629;SDS011;7914;50.842;0.166;2023-04-01T11:26:52;7.60;;;2.03;;
15629;SDS011;7914;50.842;0.166;2023-04-01T11:40:59;5.90;;;2.03;;
15629;SDS011;7914;50.842;0.166;2023-04-01T11:43:49;4.82;;;1.92;;
15629;SDS011;7914;50.842;0.166;2023-04-01T11:49:29;5.53;;;2.10;;
15629;SDS011;7914;50.842;0.166;2023-04-01T11:55:28;4.20;;;1.70;;
15629;SDS011;7914;50.842;0.166;2023-04-01T12:15:13;4.10;;;1.58;;
15629;SDS011;7914;50.842;0.166;2023-04-01T12:18:18;4.22;;;1.67;;
15629;SDS011;7914;50.842;0.166;2023-04-01T12:29:07;5.00;;;1.90;;
15629;SDS011;7914;50.842;0.166;2023-04-01T12:39:47;5.80;;;2.20;;
15629;SDS011;7914;50.842;0.166;2023-04-01T12:56:57;6.60;;;2.20;;
15629;SDS011;7914;50.842;0.166;2023-04-01T13:02:11;7.15;;;2.22;;
15629;SDS011;7914;50.842;0.166;2023-04-01T13:07:45;6.70;;;2.50;;
15629;SDS011;7914;50.842;0.166;2023-04-01T13:16:14;6.85;;;2.28;;
15629;SDS011;7914;50.842;0.166;2023-04-01T13:18:57;5.28;;;1.70;;
15629;SDS011;7914;50.842;0.166;2023-04-01T13:21:36;8.02;;;2.20;;
15629;SDS011;7914;50.842;0.166;2023-04-01T13:32:26;5.97;;;2.70;;
15629;SDS011;7914;50.842;0.166;2023-04-01T13:35:42;5.75;;;1.88;;
15629;SDS011;7914;50.842;0.166;2023-04-01T13:44:14;5.50;;;2.45;;
15629;SDS011;7914;50.842;0.166;2023-04-01T13:58:14;5.85;;;2.08;;
15629;SDS011;7914;50.842;0.166;2023-04-01T14:06:35;7.05;;;2.05;;
15629;SDS011;7914;50.842;0.166;2023-04-01T14:23:28;7.97;;;2.45;;
15629;SDS011;7914;50.842;0.166;2023-04-01T14:26:02;5.35;;;1.73;;
15629;SDS011;7914;50.842;0.166;2023-04-01T14:31:27;8.18;;;2.40;;
15629;SDS011;7914;50.842;0.166;2023-04-01T14:34:16;7.80;;;3.38;;
15629;SDS011;7914;50.842;0.166;2023-04-01T14:36:59;7.63;;;1.98;;
15629;SDS011;7914;50.842;0.166;2023-04-01T14:50:57;6.50;;;2.67;;
15629;SDS011;7914;50.842;0.166;2023-04-01T14:54:02;7.22;;;2.50;;
15629;SDS011;7914;50.842;0.166;2023-04-01T14:56:42;8.48;;;2.65;;
15629;SDS011;7914;50.842;0.166;2023-04-01T15:18:33;5.18;;;1.65;;
15629;SDS011;7914;50.842;0.166;2023-04-01T15:26:57;4.03;;;1.55;;
15629;SDS011;7914;50.842;0.166;2023-04-01T15:32:32;5.72;;;1.60;;
15629;SDS011;7914;50.842;0.166;2023-04-01T15:37:57;6.07;;;1.67;;
15629;SDS011;7914;50.842;0.166;2023-04-01T15:48:44;4.82;;;1.75;;
15629;SDS011;7914;50.842;0.166;2023-04-01T15:59:41;5.05;;;2.10;;
15629;SDS011;7914;50.842;0.166;2023-04-01T16:05:25;6.20;;;2.00;;
15629;SDS011;7914;50.842;0.166;2023-04-01T16:10:51;5.28;;;2.10;;
15629;SDS011;7914;50.842;0.166;2023-04-01T16:21:53;6.80;;;1.77;;
15629;SDS011;7914;50.842;0.166;2023-04-01T16:29:45;6.13;;;1.90;;
15629;SDS011;7914;50.842;0.166;2023-04-01T16:32:17;9.10;;;1.95;;
15629;SDS011;7914;50.842;0.166;2023-04-01T16:38:18;4.45;;;1.52;;
15629;SDS011;7914;50.842;0.166;2023-04-01T16:46:26;5.38;;;2.20;;
15629;SDS011;7914;50.842;0.166;2023-04-01T16:49:25;6.15;;;2.05;;
15629;SDS011;7914;50.842;0.166;2023-04-01T17:07:15;6.10;;;2.80;;
15629;SDS011;7914;50.842;0.166;2023-04-01T17:15:13;6.90;;;3.00;;
15629;SDS011;7914;50.842;0.166;2023-04-01T17:23:27;8.30;;;3.42;;
15629;SDS011;7914;50.842;0.166;2023-04-01T17:25:58;6.68;;;3.08;;
15629;SDS011;7914;50.842;0.166;2023-04-01T17:28:39;7.13;;;3.78;;
15629;SDS011;7914;50.842;0.166;2023-04-01T17:37:23;8.18;;;2.95;;
15629;SDS011;7914;50.842;0.166;2023-04-01T17:49:30;6.53;;;3.05;;
15629;SDS011;7914;50.842;0.166;2023-04-01T17:57:34;7.53;;;3.45;;
15629;SDS011;7914;50.842;0.166;2023-04-01T18:00:17;7.50;;;3.10;;
15629;SDS011;7914;50.842;0.166;2023-04-01T18:08:33;9.00;;;3.15;;
15629;SDS011;7914;50.842;0.166;2023-04-01T18:11:26;7.90;;;3.30;;
15629;SDS011;7914;50.842;0.166;2023-04-01T18:14:23;6.28;;;3.17;;
15629;SDS011;7914;50.842;0.166;2023-04-01T18:17:24;8.88;;;3.20;;
15629;SDS011;7914;50.842;0.166;2023-04-01T18:30:59;8.35;;;2.75;;
15629;SDS011;7914;50.842;0.166;2023-04-01T18:39:02;7.43;;;3.70;;
15629;SDS011;7914;50.842;0.166;2023-04-01T18:52:50;6.80;;;2.70;;
15629;SDS011;7914;50.842;0.166;2023-04-01T19:06:17;8.55;;;2.70;;
15629;SDS011;7914;50.842;0.166;2023-04-01T19:25:23;6.88;;;2.70;;
15629;SDS011;7914;50.842;0.166;2023-04-01T19:28:05;6.47;;;2.95;;
15629;SDS011;7914;50.842;0.166;2023-04-01T19:30:56;6.90;;;2.53;;
15629;SDS011;7914;50.842;0.166;2023-04-01T19:33:41;7.35;;;2.60;;
15629;SDS011;7914;50.842;0.166;2023-04-01T19:47:02;6.45;;;2.35;;
15629;SDS011;7914;50.842;0.166;2023-04-01T19:57:53;6.78;;;2.10;;
15629;SDS011;7914;50.842;0.166;2023-04-01T20:12:01;7.38;;;2.50;;
15629;SDS011;7914;50.842;0.166;2023-04-01T20:14:58;7.50;;;2.20;;
15629;SDS011;7914;50.842;0.166;2023-04-01T20:25:43;5.97;;;2.17;;
15629;SDS011;7914;50.842;0.166;2023-04-01T20:28:21;6.45;;;2.22;;
15629;SDS011;7914;50.842;0.166;2023-04-01T20:36:34;5.07;;;2.10;;
15629;SDS011;7914;50.842;0.166;2023-04-01T20:39:31;5.70;;;2.33;;
15629;SDS011;7914;50.842;0.166;2023-04-01T20:42:29;4.82;;;2.22;;
15629;SDS011;7914;50.842;0.166;2023-04-01T20:45:08;7.45;;;2.40;;
15629;SDS011;7914;50.842;0.166;2023-04-01T20:47:45;8.93;;;3.85;;
15629;SDS011;7914;50.842;0.166;2023-04-01T21:03:49;6.20;;;2.30;;
15629;SDS011;7914;50.842;0.166;2023-04-01T21:14:34;5.15;;;1.90;;
15629;SDS011;7914;50.842;0.166;2023-04-01T21:17:08;4.53;;;1.65;;
15629;SDS011;7914;50.842;0.166;2023-04-01T21:22:36;5.18;;;2.00;;
15629;SDS011;7914;50.842;0.166;2023-04-01T21:25:14;3.72;;;1.60;;
15629;SDS011;7914;50.842;0.166;2023-04-01T21:42:12;3.30;;;1.40;;
15629;SDS011;7914;50.842;0.166;2023-04-01T22:06:55;4.53;;;1.45;;
15629;SDS011;7914;50.842;0.166;2023-04-01T22:12:24;4.15;;;1.30;;
15629;SDS011;7914;50.842;0.166;2023-04-01T22:15:11;5.38;;;1.50;;
15629;SDS011;7914;50.842;0.166;2023-04-01T22:20:31;5.18;;;1.50;;
15629;SDS011;7914;50.842;0.166;2023-04-01T22:29:11;4.93;;;2.00;;
15629;SDS011;7914;50.842;0.166;2023-04-01T22:34:27;4.97;;;1.33;;
15629;SDS011;7914;50.842;0.166;2023-04-01T22:37:11;3.75;;;1.58;;
15629;SDS011;7914;50.842;0.166;2023-04-01T22:45:06;5.47;;;1.58;;
15629;SDS011;7914;50.842;0.166;2023-04-01T22:56:20;6.43;;;1.50;;
15629;SDS011;7914;50.842;0.166;2023-04-01T22:59:17;3.10;;;0.95;;
15629;SDS011;7914;50.842;0.166;2023-04-01T23:02:47;2.72;;;1.02;;
15629;SDS011;7914;50.842;0.166;2023-04-01T23:05:01;4.40;;;0.93;;
15629;SDS011;7914;50.842;0.166;2023-04-01T23:10:41;1.70;;;0.68;;
15629;SDS011;7914;50.842;0.166;2023-04-01T23:13:22;3.50;;;1.00;;
15629;SDS011;7914;50.842;0.166;2023-04-01T23:15:52;2.72;;;1.00;;
15629;SDS011;7914;50.842;0.166;2023-04-01T23:21:12;2.78;;;0.93;;
15629;SDS011;7914;50.842;0.166;2023-04-01T23:28:57;2.40;;;0.85;;
15629;SDS011;7914;50.842;0.166;2023-04-01T23:31:29;2.00;;;0.80;;
15629;SDS011;7914;50.842;0.166;2023-04-01T23:34:17;1.58;;;0.80;;
15629;SDS011;7914;50.842;0.166;2023-04-01T23:36:55;3.47;;;0.93;;
15629;SDS011;7914;50.842;0.166;2023-04-01T23:39:25;3.78;;;1.23;;
15629;SDS011;7914;50.842;0.166;2023-04-01T23:41:56;2.95;;;1.10;;
15629;SDS011;7914;50.842;0.166;2023-04-01T23:44:32;3.25;;;1.13;;
15629;SDS011;7914;50.842;0.166;2023-04-01T23:47:00;2.42;;;1.08;;
15629;SDS011;7914;50.842;0.166;2023-04-01T23:49:30;3.58;;;1.25;;
15629;SDS011;7914;50.842;0.166;2023-04-01T23:52:12;1.98;;;1.00;;
15629;SDS011;7914;50.842;0.166;2023-04-01T23:54:52;3.90;;;1.25;;
15629;SDS011;7914;50.842;0.166;2023-04-01T23:57:29;3.72;;;1.23;;
